Time;durP1;ratioP1;P1;durP2;ratioP2;P2;SDS_P1;SDS_P2;PMS_P1;PMS_P2;Temp;Humidity;BMP_temperature;BMP_pressure;BME280_temperature;BME280_humidity;BME280_pressure;Samples;Min_cycle;Max_cycle;Signal;HPM_P1;HPM_P2
2023/07/15 00:02:02;;;;;;;3.85;2.53;;;;;;;;;;5077615;28;20024;-90
2023/07/15 00:05:09;;;;;;;2.35;1.63;;;;;;;;;;5075830;28;20103;-93
2023/07/15 00:07:58;;;;;;;2.67;1.90;;;;;;;;;;4998690;28;20449;-90
2023/07/15 00:10:24;;;;;;;3.90;1.90;;;;;;;;;;5058262;28;20115;-89
2023/07/15 00:12:50;;;;;;;2.60;1.73;;;;;;;;;;5089079;28;20355;-89
2023/07/15 00:15:15;;;;;;;2.63;1.65;;;;;;;;;;5077498;28;20084;-91
2023/07/15 00:17:41;;;;;;;5.90;2.33;;;;;;;;;;5076791;28;20115;-89
2023/07/15 00:20:08;;;;;;;1.70;1.50;;;;;;;;;;5076344;28;20039;-89
2023/07/15 00:22:37;;;;;;;2.38;1.77;;;;;;;;;;5093191;28;20024;-91
2023/07/15 00:25:06;;;;;;;4.00;1.45;;;;;;;;;;5076253;28;20036;-91
2023/07/15 00:27:34;;;;;;;2.17;1.40;;;;;;;;;;5074868;28;20038;-88
2023/07/15 00:29:59;;;;;;;2.72;1.98;;;;;;;;;;5071645;28;20118;-89
2023/07/15 00:32:26;;;;;;;3.85;2.20;;;;;;;;;;5092457;28;20117;-89
2023/07/15 00:34:52;;;;;;;3.75;2.75;;;;;;;;;;5094024;28;20590;-92
2023/07/15 00:37:20;;;;;;;2.55;1.65;;;;;;;;;;5073285;28;20024;-90
2023/07/15 00:39:49;;;;;;;5.15;1.90;;;;;;;;;;5093263;28;20024;-89
2023/07/15 00:42:41;;;;;;;3.08;2.13;;;;;;;;;;5081696;28;20040;-88
2023/07/15 00:45:06;;;;;;;2.65;1.83;;;;;;;;;;5071131;28;20036;-88
2023/07/15 00:47:45;;;;;;;3.53;2.42;;;;;;;;;;5082009;28;20483;-90
2023/07/15 00:50:19;;;;;;;2.03;1.55;;;;;;;;;;5082049;28;20031;-90
2023/07/15 00:52:45;;;;;;;2.13;1.55;;;;;;;;;;5102493;28;20023;-90
2023/07/15 00:55:14;;;;;;;1.88;1.67;;;;;;;;;;5104071;28;20016;-93
2023/07/15 00:57:41;;;;;;;2.75;2.08;;;;;;;;;;5102435;28;20027;-89
2023/07/15 01:00:09;;;;;;;2.33;1.42;;;;;;;;;;5081279;28;20168;-85
2023/07/15 01:02:37;;;;;;;2.55;1.83;;;;;;;;;;5099701;28;20097;-88
2023/07/15 01:05:04;;;;;;;2.25;1.67;;;;;;;;;;5102231;28;20080;-86
2023/07/15 01:07:30;;;;;;;2.63;1.95;;;;;;;;;;5084409;28;20028;-86
2023/07/15 01:09:55;;;;;;;8.00;1.80;;;;;;;;;;5097114;28;20420;-87
2023/07/15 01:12:21;;;;;;;3.83;2.05;;;;;;;;;;5084440;28;20430;-87
2023/07/15 01:14:47;;;;;;;3.03;1.80;;;;;;;;;;5083536;28;20016;-87
2023/07/15 01:17:13;;;;;;;2.60;2.20;;;;;;;;;;5106435;28;20043;-87
2023/07/15 01:19:38;;;;;;;4.85;1.70;;;;;;;;;;5090155;28;20035;-87
2023/07/15 01:22:05;;;;;;;3.53;1.92;;;;;;;;;;5085441;28;20497;-85
2023/07/15 01:24:31;;;;;;;2.45;1.85;;;;;;;;;;5086973;28;20437;-88
2023/07/15 01:27:00;;;;;;;1.38;1.17;;;;;;;;;;5104481;28;20493;-89
2023/07/15 01:29:29;;;;;;;4.45;2.08;;;;;;;;;;5098630;28;20059;-88
2023/07/15 01:31:58;;;;;;;4.30;1.85;;;;;;;;;;5083782;28;20039;-89
2023/07/15 01:34:24;;;;;;;3.28;2.30;;;;;;;;;;5081334;28;20020;-88
2023/07/15 01:36:52;;;;;;;2.85;2.28;;;;;;;;;;5099113;28;20042;-87
2023/07/15 01:39:18;;;;;;;2.25;1.30;;;;;;;;;;5082657;28;20035;-87
2023/07/15 01:41:44;;;;;;;2.55;1.40;;;;;;;;;;5101078;28;20488;-87
2023/07/15 01:44:10;;;;;;;2.97;2.58;;;;;;;;;;5079307;28;20036;-87
2023/07/15 01:46:38;;;;;;;3.15;1.73;;;;;;;;;;5085931;28;20023;-87
2023/07/15 01:49:05;;;;;;;1.65;1.48;;;;;;;;;;5080568;28;20125;-86
2023/07/15 01:51:31;;;;;;;4.28;2.30;;;;;;;;;;5084081;28;20692;-87
2023/07/15 01:53:56;;;;;;;3.20;2.30;;;;;;;;;;5087184;28;20024;-87
2023/07/15 01:56:22;;;;;;;3.78;2.47;;;;;;;;;;5087485;28;20518;-87
2023/07/15 01:58:54;;;;;;;3.40;2.33;;;;;;;;;;5087682;28;20040;-88
2023/07/15 02:01:19;;;;;;;2.13;1.83;;;;;;;;;;5089540;28;20118;-87
2023/07/15 02:03:45;;;;;;;3.05;1.98;;;;;;;;;;5105450;28;20448;-88
2023/07/15 02:06:11;;;;;;;3.50;2.38;;;;;;;;;;5079966;28;20059;-87
2023/07/15 02:08:38;;;;;;;2.78;2.25;;;;;;;;;;5080604;28;20028;-89
2023/07/15 02:11:04;;;;;;;3.92;3.03;;;;;;;;;;5106373;28;20024;-87
2023/07/15 02:13:29;;;;;;;4.18;2.70;;;;;;;;;;5106106;28;20038;-86
2023/07/15 02:15:55;;;;;;;5.10;2.60;;;;;;;;;;5088676;28;20082;-88
2023/07/15 02:18:22;;;;;;;2.90;1.52;;;;;;;;;;5106957;28;20020;-86
2023/07/15 02:20:49;;;;;;;11.60;3.55;;;;;;;;;;5095667;28;20054;-85
2023/07/15 02:23:16;;;;;;;5.07;3.08;;;;;;;;;;5085431;28;20590;-88
2023/07/15 02:25:42;;;;;;;3.90;2.40;;;;;;;;;;5097056;28;20375;-86
2023/07/15 02:28:07;;;;;;;4.20;2.88;;;;;;;;;;5093820;28;20023;-87
2023/07/15 02:30:34;;;;;;;4.25;2.53;;;;;;;;;;5099246;28;20023;-85
2023/07/15 02:33:01;;;;;;;4.55;3.25;;;;;;;;;;5105957;28;20102;-86
2023/07/15 02:35:27;;;;;;;3.50;2.78;;;;;;;;;;5103955;28;20387;-86
2023/07/15 02:37:54;;;;;;;3.67;2.17;;;;;;;;;;5100629;28;20034;-86
2023/07/15 02:40:20;;;;;;;4.25;2.78;;;;;;;;;;5103527;28;20082;-85
2023/07/15 02:42:46;;;;;;;3.50;2.63;;;;;;;;;;5080547;28;20044;-89
2023/07/15 02:45:14;;;;;;;2.67;2.03;;;;;;;;;;5098523;28;20032;-87
2023/07/15 02:47:39;;;;;;;2.72;2.05;;;;;;;;;;5099191;28;20020;-87
2023/07/15 02:50:07;;;;;;;2.05;1.73;;;;;;;;;;5093168;28;20027;-86
2023/07/15 02:52:34;;;;;;;3.83;2.58;;;;;;;;;;5076191;28;20043;-87
2023/07/15 02:55:01;;;;;;;2.83;2.38;;;;;;;;;;5078829;28;20012;-86
2023/07/15 02:57:27;;;;;;;1.98;1.48;;;;;;;;;;5092111;28;20514;-85
2023/07/15 02:59:54;;;;;;;2.67;2.38;;;;;;;;;;5095435;28;20032;-88
2023/07/15 03:02:20;;;;;;;5.50;3.83;;;;;;;;;;5076755;28;20028;-85
2023/07/15 03:04:46;;;;;;;3.03;2.75;;;;;;;;;;5093545;28;20111;-87
2023/07/15 03:07:14;;;;;;;3.63;2.10;;;;;;;;;;5075257;28;20039;-85
2023/07/15 03:09:40;;;;;;;3.03;2.53;;;;;;;;;;5076499;28;20113;-88
2023/07/15 03:12:07;;;;;;;4.00;2.05;;;;;;;;;;5093249;28;20052;-88
2023/07/15 03:14:33;;;;;;;2.97;2.10;;;;;;;;;;5097683;28;20026;-87
2023/07/15 03:16:58;;;;;;;2.65;2.13;;;;;;;;;;5094755;28;20020;-89
2023/07/15 03:19:26;;;;;;;4.32;2.47;;;;;;;;;;5095475;28;20023;-87
2023/07/15 03:21:54;;;;;;;3.88;2.58;;;;;;;;;;5093881;28;20050;-87
2023/07/15 03:24:22;;;;;;;4.63;1.88;;;;;;;;;;5096311;28;20047;-89
2023/07/15 03:26:47;;;;;;;2.90;1.95;;;;;;;;;;5077192;28;20031;-87
2023/07/15 03:29:13;;;;;;;4.20;2.75;;;;;;;;;;5076348;28;20361;-87
2023/07/15 03:31:41;;;;;;;3.40;2.53;;;;;;;;;;5075534;28;20507;-89
2023/07/15 03:34:07;;;;;;;5.00;3.08;;;;;;;;;;5074577;28;20024;-89
2023/07/15 03:36:34;;;;;;;3.50;2.33;;;;;;;;;;5074293;28;21605;-88
2023/07/15 03:38:59;;;;;;;2.78;2.10;;;;;;;;;;5093116;28;20047;-90
2023/07/15 03:41:25;;;;;;;3.50;2.40;;;;;;;;;;5098593;28;20399;-89
2023/07/15 03:43:50;;;;;;;3.97;2.22;;;;;;;;;;5114204;28;20027;-89
2023/07/15 03:46:16;;;;;;;3.40;1.88;;;;;;;;;;5113453;28;20027;-90
2023/07/15 03:48:41;;;;;;;3.83;2.22;;;;;;;;;;5114134;28;20034;-88
2023/07/15 03:51:07;;;;;;;4.25;2.75;;;;;;;;;;5098055;28;20028;-88
2023/07/15 03:53:33;;;;;;;2.92;2.17;;;;;;;;;;5114088;28;20027;-87
2023/07/15 03:55:58;;;;;;;6.13;2.17;;;;;;;;;;5115742;28;20015;-87
2023/07/15 03:58:27;;;;;;;5.95;2.83;;;;;;;;;;5098324;28;20019;-90
2023/07/15 04:00:52;;;;;;;2.95;2.45;;;;;;;;;;5115746;28;20058;-90
2023/07/15 04:03:18;;;;;;;2.28;1.83;;;;;;;;;;5100997;28;20027;-84
2023/07/15 04:05:44;;;;;;;2.55;2.10;;;;;;;;;;5099212;28;20031;-86
2023/07/15 04:08:11;;;;;;;3.35;2.13;;;;;;;;;;5099171;28;20028;-88
2023/07/15 04:10:37;;;;;;;2.20;1.65;;;;;;;;;;5101072;28;20035;-86
2023/07/15 04:13:02;;;;;;;3.55;2.00;;;;;;;;;;5113683;27;20032;-86
2023/07/15 04:15:30;;;;;;;3.25;2.35;;;;;;;;;;5096125;28;20069;-84
2023/07/15 04:17:55;;;;;;;4.13;2.65;;;;;;;;;;5116113;28;20049;-87
2023/07/15 04:20:23;;;;;;;2.15;1.63;;;;;;;;;;5116496;27;20027;-88
2023/07/15 04:22:49;;;;;;;5.45;2.15;;;;;;;;;;5111588;28;20027;-86
2023/07/15 04:25:17;;;;;;;3.85;2.13;;;;;;;;;;5101750;28;20042;-87
2023/07/15 04:27:45;;;;;;;2.97;2.00;;;;;;;;;;5094437;28;20019;-88
2023/07/15 04:30:11;;;;;;;3.63;2.58;;;;;;;;;;5125692;27;20056;-85
2023/07/15 04:32:36;;;;;;;2.65;2.28;;;;;;;;;;5097894;28;20066;-87
2023/07/15 04:35:05;;;;;;;2.53;1.63;;;;;;;;;;5115913;28;20425;-84
2023/07/15 04:37:31;;;;;;;2.47;2.00;;;;;;;;;;5098072;28;20060;-85
2023/07/15 04:40:03;;;;;;;4.88;3.00;;;;;;;;;;5113504;28;20110;-90
2023/07/15 04:42:29;;;;;;;8.13;3.13;;;;;;;;;;5109088;28;20051;-91
2023/07/15 04:44:54;;;;;;;8.88;3.25;;;;;;;;;;5107719;28;20032;-89
2023/07/15 04:47:20;;;;;;;2.70;2.17;;;;;;;;;;5083301;28;20027;-90
2023/07/15 04:49:45;;;;;;;4.35;2.80;;;;;;;;;;5078172;28;20078;-89
2023/07/15 04:52:11;;;;;;;2.63;2.03;;;;;;;;;;5075271;28;20032;-89
2023/07/15 04:54:36;;;;;;;4.65;2.53;;;;;;;;;;5081084;28;20020;-89
2023/07/15 04:57:02;;;;;;;2.53;1.73;;;;;;;;;;5100581;28;20081;-90
2023/07/15 04:59:27;;;;;;;3.25;2.30;;;;;;;;;;5076907;28;20023;-91
2023/07/15 05:01:53;;;;;;;1.83;1.45;;;;;;;;;;5074288;28;20028;-85
2023/07/15 05:04:18;;;;;;;3.58;2.50;;;;;;;;;;5097820;28;20020;-84
2023/07/15 05:06:44;;;;;;;3.22;2.28;;;;;;;;;;5097608;28;20023;-86
2023/07/15 05:09:10;;;;;;;3.97;2.13;;;;;;;;;;5099079;28;20051;-85
2023/07/15 05:11:35;;;;;;;5.78;2.67;;;;;;;;;;5098176;28;20171;-87
2023/07/15 05:14:01;;;;;;;3.42;2.28;;;;;;;;;;5093434;28;20444;-82
2023/07/15 05:16:26;;;;;;;2.38;1.35;;;;;;;;;;5094781;28;20031;-85
2023/07/15 05:18:52;;;;;;;2.85;1.92;;;;;;;;;;5101233;28;20110;-86
2023/07/15 05:21:17;;;;;;;3.50;1.95;;;;;;;;;;5091871;28;20032;-84
2023/07/15 05:23:43;;;;;;;2.50;1.83;;;;;;;;;;5096281;28;20447;-86
2023/07/15 05:26:08;;;;;;;3.83;2.85;;;;;;;;;;5084358;28;20058;-86
2023/07/15 05:28:35;;;;;;;1.95;1.40;;;;;;;;;;5076600;28;20026;-85
2023/07/15 05:31:01;;;;;;;3.70;2.58;;;;;;;;;;5102390;28;20023;-84
2023/07/15 05:33:27;;;;;;;12.68;3.03;;;;;;;;;;5102124;28;20031;-89
2023/07/15 05:35:54;;;;;;;2.80;2.03;;;;;;;;;;5080160;28;20027;-87
2023/07/15 05:38:24;;;;;;;2.40;1.50;;;;;;;;;;5096697;28;20031;-85
2023/07/15 05:40:50;;;;;;;1.42;1.27;;;;;;;;;;5102190;28;20023;-86
2023/07/15 05:43:16;;;;;;;2.88;2.17;;;;;;;;;;5095051;28;20119;-84
2023/07/15 05:45:41;;;;;;;4.85;2.20;;;;;;;;;;5097130;28;20114;-84
2023/07/15 05:48:07;;;;;;;2.90;2.00;;;;;;;;;;5091385;28;20019;-85
2023/07/15 05:50:36;;;;;;;1.98;1.60;;;;;;;;;;5098761;28;20024;-84
2023/07/15 05:53:04;;;;;;;2.53;1.58;;;;;;;;;;5093674;28;20097;-83
2023/07/15 05:55:33;;;;;;;3.20;2.00;;;;;;;;;;5093043;28;20046;-83
2023/07/15 05:57:58;;;;;;;2.10;1.70;;;;;;;;;;5098108;28;20047;-83
2023/07/15 06:00:24;;;;;;;3.15;2.13;;;;;;;;;;5100588;28;20020;-85
2023/07/15 06:02:49;;;;;;;2.95;1.98;;;;;;;;;;5093079;28;20031;-83
2023/07/15 06:05:15;;;;;;;3.22;2.35;;;;;;;;;;5094132;28;20090;-83
2023/07/15 06:07:40;;;;;;;3.08;1.92;;;;;;;;;;5091923;28;20036;-83
2023/07/15 06:10:06;;;;;;;2.60;1.98;;;;;;;;;;5093293;28;20027;-83
2023/07/15 06:12:32;;;;;;;2.95;2.25;;;;;;;;;;5093115;28;20118;-83
2023/07/15 06:14:57;;;;;;;3.75;2.92;;;;;;;;;;5095638;28;20063;-83
2023/07/15 06:17:23;;;;;;;3.45;2.15;;;;;;;;;;5090134;28;20039;-88
2023/07/15 06:19:48;;;;;;;2.35;1.85;;;;;;;;;;5068868;28;20032;-82
2023/07/15 06:22:14;;;;;;;5.00;2.53;;;;;;;;;;5101993;28;20365;-83
2023/07/15 06:24:39;;;;;;;3.08;2.25;;;;;;;;;;5105435;28;20027;-85
2023/07/15 06:27:08;;;;;;;3.42;2.38;;;;;;;;;;5079147;28;20051;-81
2023/07/15 06:29:34;;;;;;;3.35;2.42;;;;;;;;;;5077884;28;20052;-84
2023/07/15 06:31:59;;;;;;;1.98;1.73;;;;;;;;;;5093827;28;20071;-88
2023/07/15 06:34:25;;;;;;;2.88;1.88;;;;;;;;;;5073257;28;20476;-84
2023/07/15 06:36:50;;;;;;;3.83;2.47;;;;;;;;;;5102271;28;20077;-85
2023/07/15 06:39:17;;;;;;;2.92;2.20;;;;;;;;;;5104670;28;20107;-85
2023/07/15 06:41:42;;;;;;;2.72;1.73;;;;;;;;;;5099870;28;20036;-87
2023/07/15 06:44:08;;;;;;;2.92;2.22;;;;;;;;;;5099354;28;20422;-84
2023/07/15 06:46:33;;;;;;;2.70;1.77;;;;;;;;;;5092693;28;20039;-88
2023/07/15 06:48:58;;;;;;;2.47;1.90;;;;;;;;;;5077129;28;20030;-86
2023/07/15 06:51:24;;;;;;;2.63;1.75;;;;;;;;;;5100417;28;20169;-84
2023/07/15 06:53:49;;;;;;;3.22;2.58;;;;;;;;;;5095347;28;20024;-84
2023/07/15 06:56:15;;;;;;;4.90;2.78;;;;;;;;;;5102227;28;20379;-85
2023/07/15 06:58:41;;;;;;;3.53;2.50;;;;;;;;;;5110995;28;20020;-87
2023/07/15 07:01:06;;;;;;;2.67;1.73;;;;;;;;;;5097549;28;20361;-85
2023/07/15 07:03:35;;;;;;;2.53;1.83;;;;;;;;;;5088394;28;20031;-85
2023/07/15 07:06:01;;;;;;;4.18;2.22;;;;;;;;;;5096003;28;20031;-88
2023/07/15 07:08:27;;;;;;;2.42;1.77;;;;;;;;;;5079234;28;20105;-85
2023/07/15 07:10:53;;;;;;;4.10;2.28;;;;;;;;;;5093252;28;20047;-85
2023/07/15 07:13:19;;;;;;;1.90;1.35;;;;;;;;;;5074073;28;20122;-85
2023/07/15 07:15:44;;;;;;;2.97;1.83;;;;;;;;;;5098150;28;20580;-84
2023/07/15 07:18:11;;;;;;;6.78;2.03;;;;;;;;;;5093879;28;20353;-82
2023/07/15 07:20:38;;;;;;;3.95;2.50;;;;;;;;;;5070067;28;20024;-82
2023/07/15 07:23:03;;;;;;;2.20;1.48;;;;;;;;;;5094344;28;20035;-84
2023/07/15 07:25:28;;;;;;;2.58;1.67;;;;;;;;;;5096878;28;20024;-87
2023/07/15 07:27:54;;;;;;;2.15;1.63;;;;;;;;;;5093041;28;20039;-85
2023/07/15 07:30:19;;;;;;;4.72;1.90;;;;;;;;;;5099088;28;20111;-84
2023/07/15 07:32:45;;;;;;;3.03;1.98;;;;;;;;;;5095847;28;20023;-83
2023/07/15 07:35:10;;;;;;;2.72;1.95;;;;;;;;;;5089437;28;20051;-85
2023/07/15 07:37:36;;;;;;;2.53;1.63;;;;;;;;;;5074299;28;20058;-84
2023/07/15 07:40:01;;;;;;;2.75;1.83;;;;;;;;;;5094311;28;20035;-85
2023/07/15 07:42:27;;;;;;;2.35;1.75;;;;;;;;;;5083135;28;20043;-84
2023/07/15 07:44:54;;;;;;;2.40;1.73;;;;;;;;;;5092851;28;20030;-84
2023/07/15 07:47:20;;;;;;;2.80;1.90;;;;;;;;;;5091911;28;20492;-85
2023/07/15 07:49:45;;;;;;;1.95;1.33;;;;;;;;;;5086355;28;20043;-85
2023/07/15 07:52:12;;;;;;;2.55;1.80;;;;;;;;;;5103131;28;20539;-85
2023/07/15 07:54:39;;;;;;;3.08;1.65;;;;;;;;;;5088658;28;20024;-84
2023/07/15 07:57:05;;;;;;;3.92;2.03;;;;;;;;;;5093816;28;20111;-82
2023/07/15 07:59:30;;;;;;;2.75;1.80;;;;;;;;;;5088411;28;20424;-84
2023/07/15 08:01:56;;;;;;;3.25;2.35;;;;;;;;;;5072098;28;20032;-83
2023/07/15 08:04:21;;;;;;;2.78;1.65;;;;;;;;;;5102004;28;20036;-84
2023/07/15 08:06:47;;;;;;;2.95;1.85;;;;;;;;;;5090466;28;20024;-85
2023/07/15 08:09:12;;;;;;;4.25;2.67;;;;;;;;;;5094930;28;20384;-82
2023/07/15 08:11:38;;;;;;;2.90;2.17;;;;;;;;;;5094004;28;20067;-84
2023/07/15 08:14:03;;;;;;;2.88;2.22;;;;;;;;;;5078383;28;20062;-81
2023/07/15 08:16:33;;;;;;;4.22;2.55;;;;;;;;;;5087865;28;20032;-83
2023/07/15 08:18:59;;;;;;;3.50;2.25;;;;;;;;;;5089749;28;20479;-80
2023/07/15 08:21:26;;;;;;;4.68;2.67;;;;;;;;;;5089755;28;20032;-83
2023/07/15 08:23:52;;;;;;;2.58;2.20;;;;;;;;;;5093284;28;20031;-83
2023/07/15 08:26:17;;;;;;;2.55;1.55;;;;;;;;;;5090956;28;20024;-85
2023/07/15 08:28:43;;;;;;;3.42;2.13;;;;;;;;;;5089067;28;20081;-86
2023/07/15 08:31:11;;;;;;;3.08;2.05;;;;;;;;;;5088241;28;20024;-84
2023/07/15 08:33:36;;;;;;;4.20;2.30;;;;;;;;;;5092121;28;20028;-84
2023/07/15 08:36:02;;;;;;;3.55;2.45;;;;;;;;;;5091501;28;20116;-80
2023/07/15 08:38:30;;;;;;;4.88;2.20;;;;;;;;;;5088656;28;20495;-82
2023/07/15 08:40:58;;;;;;;3.92;2.65;;;;;;;;;;5099140;28;20092;-81
2023/07/15 08:43:24;;;;;;;3.63;2.37;;;;;;;;;;5094406;28;20467;-83
2023/07/15 08:45:49;;;;;;;3.17;2.00;;;;;;;;;;5075421;28;20122;-81
2023/07/15 08:48:15;;;;;;;2.60;1.83;;;;;;;;;;5084074;28;20060;-81
2023/07/15 08:50:41;;;;;;;2.95;1.90;;;;;;;;;;5069731;28;20058;-82
2023/07/15 08:53:08;;;;;;;3.97;2.17;;;;;;;;;;5099982;28;20395;-82
2023/07/15 08:55:33;;;;;;;3.25;2.30;;;;;;;;;;5089585;28;20039;-82
2023/07/15 08:57:59;;;;;;;2.17;1.85;;;;;;;;;;5088007;28;20107;-85
2023/07/15 09:00:25;;;;;;;2.38;1.75;;;;;;;;;;5093262;28;20471;-85
2023/07/15 09:02:51;;;;;;;3.72;2.13;;;;;;;;;;5082989;28;20450;-85
2023/07/15 09:05:17;;;;;;;3.88;2.35;;;;;;;;;;5093991;28;20047;-87
2023/07/15 09:08:08;;;;;;;3.72;2.00;;;;;;;;;;5095287;28;20058;-85
2023/07/15 09:10:34;;;;;;;3.60;2.50;;;;;;;;;;5094915;28;20460;-84
2023/07/15 09:12:59;;;;;;;3.40;2.53;;;;;;;;;;5070267;28;20039;-84
2023/07/15 09:15:25;;;;;;;4.13;2.75;;;;;;;;;;5096253;28;20027;-84
2023/07/15 09:17:55;;;;;;;3.50;2.55;;;;;;;;;;5091858;28;20028;-85
2023/07/15 09:20:23;;;;;;;2.80;1.90;;;;;;;;;;5095003;28;20028;-85
2023/07/15 09:22:56;;;;;;;3.05;2.20;;;;;;;;;;5088378;28;20073;-85
2023/07/15 09:25:22;;;;;;;3.40;2.58;;;;;;;;;;5100123;28;20419;-85
2023/07/15 09:27:48;;;;;;;2.60;1.85;;;;;;;;;;5078554;28;20027;-85
2023/07/15 09:30:14;;;;;;;3.03;2.17;;;;;;;;;;5091961;28;20490;-85
2023/07/15 09:32:39;;;;;;;3.33;2.28;;;;;;;;;;5093055;28;20096;-85
2023/07/15 09:35:06;;;;;;;3.65;2.45;;;;;;;;;;5091454;28;20597;-87
2023/07/15 09:37:32;;;;;;;4.05;2.38;;;;;;;;;;5099570;28;20028;-84
2023/07/15 09:40:05;;;;;;;7.55;3.08;;;;;;;;;;5092623;28;20111;-87
2023/07/15 09:42:48;;;;;;;3.75;2.17;;;;;;;;;;5073175;28;20142;-84
2023/07/15 09:45:37;;;;;;;8.82;2.40;;;;;;;;;;5094345;28;20020;-84
2023/07/15 09:48:06;;;;;;;3.55;2.25;;;;;;;;;;5091190;28;20024;-86
2023/07/15 09:50:33;;;;;;;4.78;3.05;;;;;;;;;;5096727;28;20020;-83
2023/07/15 09:53:00;;;;;;;3.65;2.38;;;;;;;;;;5090286;28;20472;-83
2023/07/15 09:55:26;;;;;;;2.40;2.00;;;;;;;;;;5081352;28;20040;-82
2023/07/15 09:58:00;;;;;;;2.60;2.08;;;;;;;;;;5100038;28;20047;-84
2023/07/15 10:00:28;;;;;;;3.53;2.20;;;;;;;;;;5089157;28;20048;-83
2023/07/15 10:02:57;;;;;;;3.55;2.55;;;;;;;;;;5091077;28;20059;-84
2023/07/15 10:05:24;;;;;;;4.55;3.05;;;;;;;;;;5088709;28;20091;-87
2023/07/15 10:07:51;;;;;;;3.42;2.97;;;;;;;;;;5070429;28;20027;-83
2023/07/15 10:10:20;;;;;;;4.65;3.05;;;;;;;;;;5094535;28;20024;-86
2023/07/15 10:12:46;;;;;;;4.43;3.13;;;;;;;;;;5081432;28;20023;-83
2023/07/15 10:15:12;;;;;;;4.35;3.08;;;;;;;;;;5096180;28;20038;-84
2023/07/15 10:17:38;;;;;;;4.10;3.05;;;;;;;;;;5094589;28;20040;-84
2023/07/15 10:20:12;;;;;;;4.32;3.05;;;;;;;;;;5078609;28;20027;-84
2023/07/15 10:22:40;;;;;;;3.65;2.30;;;;;;;;;;5102546;28;20068;-85
2023/07/15 10:25:09;;;;;;;4.85;3.13;;;;;;;;;;5079765;28;20446;-83
2023/07/15 10:27:35;;;;;;;5.28;3.15;;;;;;;;;;5075235;28;20126;-84
2023/07/15 10:30:25;;;;;;;3.35;2.20;;;;;;;;;;5106397;28;20531;-85
2023/07/15 10:33:08;;;;;;;4.45;2.92;;;;;;;;;;5104493;28;20055;-84
2023/07/15 10:35:40;;;;;;;5.57;3.70;;;;;;;;;;5078203;28;20035;-84
2023/07/15 10:38:21;;;;;;;4.32;3.00;;;;;;;;;;5104906;28;20476;-84
2023/07/15 10:40:52;;;;;;;4.20;3.30;;;;;;;;;;5098090;28;20112;-82
2023/07/15 10:43:35;;;;;;;4.80;3.10;;;;;;;;;;5100854;28;20073;-84
2023/07/15 10:46:08;;;;;;;6.55;3.42;;;;;;;;;;5102798;28;20509;-85
2023/07/15 10:48:34;;;;;;;7.95;3.58;;;;;;;;;;5081693;28;20023;-84
2023/07/15 10:51:03;;;;;;;3.97;2.88;;;;;;;;;;5097345;28;20034;-84
2023/07/15 10:53:32;;;;;;;4.70;3.10;;;;;;;;;;5085634;28;20037;-84
2023/07/15 10:55:58;;;;;;;;;;;;;;;;;;5081598;28;20043;-83
2023/07/15 10:58:25;;;;;;;4.32;3.15;;;;;;;;;;5099507;28;19919;-86
2023/07/15 11:00:56;;;;;;;4.07;2.58;;;;;;;;;;5080095;28;20024;-85
2023/07/15 11:03:22;;;;;;;4.22;2.47;;;;;;;;;;5090515;28;20050;-84
2023/07/15 11:05:48;;;;;;;3.67;2.50;;;;;;;;;;5090100;28;20472;-84
2023/07/15 11:08:14;;;;;;;4.68;3.08;;;;;;;;;;5096943;28;20019;-86
2023/07/15 11:10:39;;;;;;;4.57;2.70;;;;;;;;;;5097387;28;20038;-84
2023/07/15 11:13:15;;;;;;;4.50;3.25;;;;;;;;;;5090193;28;20032;-85
2023/07/15 11:15:43;;;;;;;3.88;2.70;;;;;;;;;;5103785;28;20039;-87
2023/07/15 11:18:16;;;;;;;3.88;2.67;;;;;;;;;;5094274;28;20422;-86
2023/07/15 11:20:43;;;;;;;7.22;3.47;;;;;;;;;;5099356;28;20028;-83
2023/07/15 11:23:12;;;;;;;3.13;2.60;;;;;;;;;;5099110;28;20031;-84
2023/07/15 11:25:38;;;;;;;3.03;2.22;;;;;;;;;;5097373;28;20020;-83
2023/07/15 11:28:03;;;;;;;2.90;2.25;;;;;;;;;;5092671;28;20352;-85
2023/07/15 11:30:40;;;;;;;4.28;3.17;;;;;;;;;;5077619;28;20399;-85
2023/07/15 11:33:06;;;;;;;4.05;2.22;;;;;;;;;;5091849;28;20114;-83
2023/07/15 11:35:36;;;;;;;4.15;2.88;;;;;;;;;;5094009;28;20042;-83
2023/07/15 11:38:15;;;;;;;4.13;2.10;;;;;;;;;;5102465;28;20036;-84
2023/07/15 11:40:53;;;;;;;2.55;1.95;;;;;;;;;;5101991;28;20027;-83
2023/07/15 11:43:21;;;;;;;3.30;2.38;;;;;;;;;;5095739;28;20016;-85
2023/07/15 11:45:47;;;;;;;4.75;2.50;;;;;;;;;;5098088;28;20020;-82
2023/07/15 11:48:21;;;;;;;3.95;2.70;;;;;;;;;;5102867;28;20103;-84
2023/07/15 11:50:46;;;;;;;4.13;2.42;;;;;;;;;;5103573;28;20035;-83
2023/07/15 11:53:32;;;;;;;4.13;2.67;;;;;;;;;;5097027;28;20032;-84
2023/07/15 11:55:57;;;;;;;3.60;2.63;;;;;;;;;;5098707;28;20031;-84
2023/07/15 11:58:41;;;;;;;4.38;2.72;;;;;;;;;;5100764;28;20467;-84
2023/07/15 12:01:11;;;;;;;7.15;3.42;;;;;;;;;;5100766;28;20119;-85
2023/07/15 12:03:36;;;;;;;3.17;2.28;;;;;;;;;;5095864;28;20106;-84
2023/07/15 12:06:02;;;;;;;2.80;1.92;;;;;;;;;;5100118;28;20107;-84
2023/07/15 12:08:27;;;;;;;3.28;2.15;;;;;;;;;;5078625;28;20439;-87
2023/07/15 12:10:57;;;;;;;3.78;2.38;;;;;;;;;;5083505;28;20139;-87
2023/07/15 12:13:23;;;;;;;6.22;3.25;;;;;;;;;;5079126;28;20495;-84
2023/07/15 12:15:48;;;;;;;3.58;2.25;;;;;;;;;;5081019;28;20126;-87
2023/07/15 12:18:14;;;;;;;3.80;2.60;;;;;;;;;;5079324;28;20023;-89
2023/07/15 12:20:39;;;;;;;3.25;2.42;;;;;;;;;;5095954;28;20035;-85
2023/07/15 12:23:05;;;;;;;5.07;2.47;;;;;;;;;;5079999;28;20416;-86
2023/07/15 12:25:30;;;;;;;3.42;2.50;;;;;;;;;;5090029;28;20020;-86
2023/07/15 12:27:58;;;;;;;4.03;2.47;;;;;;;;;;5097482;28;20050;-84
2023/07/15 12:30:23;;;;;;;4.40;3.33;;;;;;;;;;5099466;28;20406;-89
2023/07/15 12:32:49;;;;;;;5.80;2.60;;;;;;;;;;5099176;28;20111;-85
2023/07/15 12:35:14;;;;;;;4.10;2.45;;;;;;;;;;5072897;28;20464;-85
2023/07/15 12:37:40;;;;;;;4.13;2.80;;;;;;;;;;5097664;28;20028;-85
2023/07/15 12:40:07;;;;;;;5.38;2.70;;;;;;;;;;5097504;28;20039;-86
2023/07/15 12:42:39;;;;;;;3.17;2.70;;;;;;;;;;5110136;27;20036;-86
2023/07/15 12:45:05;;;;;;;4.20;3.08;;;;;;;;;;5090910;28;20023;-87
2023/07/15 12:47:30;;;;;;;4.85;2.88;;;;;;;;;;5091734;28;20031;-86
2023/07/15 12:49:56;;;;;;;4.32;2.85;;;;;;;;;;5112402;28;20031;-86
2023/07/15 12:52:22;;;;;;;6.00;3.38;;;;;;;;;;5113460;27;20020;-87
2023/07/15 12:54:47;;;;;;;3.40;2.10;;;;;;;;;;5111531;28;20479;-87
2023/07/15 12:57:14;;;;;;;4.50;2.63;;;;;;;;;;5093452;28;20034;-88
2023/07/15 12:59:39;;;;;;;3.65;2.45;;;;;;;;;;5110903;28;20038;-88
2023/07/15 13:02:05;;;;;;;4.28;2.78;;;;;;;;;;5107458;28;20024;-85
2023/07/15 13:04:33;;;;;;;4.65;2.80;;;;;;;;;;5111360;28;20054;-85
2023/07/15 13:06:58;;;;;;;2.60;2.20;;;;;;;;;;5092904;28;20035;-84
2023/07/15 13:09:24;;;;;;;3.67;2.53;;;;;;;;;;5110475;28;20379;-87
2023/07/15 13:11:52;;;;;;;3.92;2.58;;;;;;;;;;5107522;28;20464;-86
2023/07/15 13:14:18;;;;;;;4.30;2.55;;;;;;;;;;5111088;28;20429;-86
2023/07/15 13:16:43;;;;;;;3.63;2.67;;;;;;;;;;5112388;28;20027;-85
2023/07/15 13:19:09;;;;;;;4.80;2.20;;;;;;;;;;5111720;28;20493;-85
2023/07/15 13:21:35;;;;;;;4.10;2.70;;;;;;;;;;5109021;28;20098;-86
2023/07/15 13:24:03;;;;;;;4.07;2.78;;;;;;;;;;5110495;28;20103;-85
2023/07/15 13:26:29;;;;;;;3.88;2.95;;;;;;;;;;5094186;28;20054;-86
2023/07/15 13:28:55;;;;;;;4.35;3.30;;;;;;;;;;5092803;28;20380;-88
2023/07/15 13:31:20;;;;;;;3.97;2.75;;;;;;;;;;5114162;28;20041;-86
2023/07/15 13:33:46;;;;;;;4.05;2.50;;;;;;;;;;5092998;28;20024;-87
2023/07/15 13:36:11;;;;;;;4.40;2.72;;;;;;;;;;5109353;28;20023;-84
2023/07/15 13:38:37;;;;;;;3.92;2.83;;;;;;;;;;5108757;28;20387;-84
2023/07/15 13:41:04;;;;;;;2.72;2.08;;;;;;;;;;5111302;28;20395;-85
2023/07/15 13:43:30;;;;;;;3.28;2.40;;;;;;;;;;5106395;28;20086;-87
2023/07/15 13:45:55;;;;;;;4.05;2.25;;;;;;;;;;5094624;28;20039;-86
2023/07/15 13:48:21;;;;;;;3.83;2.35;;;;;;;;;;5115570;27;20030;-86
2023/07/15 13:50:46;;;;;;;3.20;2.33;;;;;;;;;;5113257;27;20024;-86
2023/07/15 13:53:12;;;;;;;2.95;2.30;;;;;;;;;;5113990;27;20080;-86
2023/07/15 13:55:37;;;;;;;3.00;2.10;;;;;;;;;;5108948;28;20023;-89
2023/07/15 13:58:03;;;;;;;4.65;2.53;;;;;;;;;;5096264;28;20091;-86
2023/07/15 14:00:28;;;;;;;3.58;2.50;;;;;;;;;;5109876;27;20039;-87
2023/07/15 14:02:54;;;;;;;3.25;2.67;;;;;;;;;;5115772;27;20106;-87
2023/07/15 14:05:19;;;;;;;5.60;3.33;;;;;;;;;;5097258;28;20489;-86
2023/07/15 14:07:45;;;;;;;3.90;2.97;;;;;;;;;;5115666;27;20440;-87
2023/07/15 14:10:10;;;;;;;3.67;2.90;;;;;;;;;;5095967;27;20612;-87
2023/07/15 14:12:36;;;;;;;6.30;3.13;;;;;;;;;;5115633;27;20187;-86
2023/07/15 14:15:03;;;;;;;7.05;2.92;;;;;;;;;;5112779;27;20031;-85
2023/07/15 14:17:28;;;;;;;3.55;2.45;;;;;;;;;;5114996;27;20035;-85
2023/07/15 14:19:54;;;;;;;4.13;2.72;;;;;;;;;;5098257;28;20035;-88
2023/07/15 14:22:20;;;;;;;4.35;2.90;;;;;;;;;;5112459;27;20098;-87
2023/07/15 14:24:45;;;;;;;3.70;2.40;;;;;;;;;;5116903;27;20471;-86
2023/07/15 14:27:10;;;;;;;3.70;2.30;;;;;;;;;;5113349;28;20107;-86
2023/07/15 14:29:38;;;;;;;3.72;2.65;;;;;;;;;;5107972;28;20055;-87
2023/07/15 14:32:05;;;;;;;7.70;3.75;;;;;;;;;;5109183;28;20028;-87
2023/07/15 14:34:30;;;;;;;4.18;2.33;;;;;;;;;;5117017;27;20050;-88
2023/07/15 14:36:56;;;;;;;3.90;3.13;;;;;;;;;;5104983;28;20058;-87
2023/07/15 14:39:21;;;;;;;3.65;2.83;;;;;;;;;;5113051;27;20427;-85
2023/07/15 14:41:47;;;;;;;3.35;2.47;;;;;;;;;;5121531;27;20383;-88
2023/07/15 14:44:12;;;;;;;3.25;2.55;;;;;;;;;;5092910;28;20886;-85